Time;durP1;ratioP1;P1;durP2;ratioP2;P2;SDS_P1;SDS_P2;PMS_P1;PMS_P2;Temp;Humidity;BMP_temperature;BMP_pressure;BME280_temperature;BME280_humidity;BME280_pressure;Samples;Min_cycle;Max_cycle;Signal;HPM_P1;HPM_P2
2021/07/25 00:02:21;;;;;;;8.00;4.40;;;;;;;16.95;100.00;98122.31;5049763;28;20021;-69
2021/07/25 00:04:46;;;;;;;9.25;4.90;;;;;;;17.04;100.00;98133.56;5049125;28;20083;-69
2021/07/25 00:07:11;;;;;;;7.82;5.25;;;;;;;17.15;100.00;98131.75;5049198;28;20384;-70
2021/07/25 00:09:37;;;;;;;10.20;5.22;;;;;;;17.15;100.00;98132.56;5053350;28;20086;-70
2021/07/25 00:12:02;;;;;;;7.88;5.38;;;;;;;17.17;100.00;98148.72;5036217;28;20020;-68
2021/07/25 00:14:28;;;;;;;12.52;4.78;;;;;;;17.13;100.00;98164.78;5053364;28;20075;-69
2021/07/25 00:16:53;;;;;;;7.50;4.80;;;;;;;17.22;100.00;98162.41;5036069;28;20451;-69
2021/07/25 00:19:18;;;;;;;10.32;4.93;;;;;;;16.98;100.00;98138.19;5052431;28;20054;-69
2021/07/25 00:21:43;;;;;;;12.95;6.10;;;;;;;17.08;100.00;98143.72;5054772;28;20486;-69
2021/07/25 00:24:09;;;;;;;8.57;4.95;;;;;;;17.12;100.00;98149.50;5053285;28;20121;-68
2021/07/25 00:26:38;;;;;;;14.68;5.75;;;;;;;17.21;100.00;98152.53;5053011;28;20040;-68
2021/07/25 00:29:08;;;;;;;9.50;5.13;;;;;;;17.04;100.00;98125.38;5059254;28;20398;-68
2021/07/25 00:31:34;;;;;;;10.45;5.25;;;;;;;17.16;100.00;98144.31;5068061;28;20094;-68
2021/07/25 00:33:59;;;;;;;11.57;5.47;;;;;;;17.18;100.00;98142.16;5066618;28;20029;-68
2021/07/25 00:36:26;;;;;;;10.82;5.10;;;;;;;17.24;100.00;98141.94;5067906;28;20029;-68
2021/07/25 00:38:51;;;;;;;11.63;5.45;;;;;;;17.17;100.00;98146.78;5050616;28;20044;-68
2021/07/25 00:41:19;;;;;;;12.88;5.15;;;;;;;17.16;100.00;98155.25;5065639;28;20028;-68
2021/07/25 00:43:45;;;;;;;7.38;5.43;;;;;;;17.13;100.00;98173.00;5068476;28;20016;-69
2021/07/25 00:46:18;;;;;;;15.35;5.75;;;;;;;17.04;100.00;98159.00;5068743;28;20049;-68
2021/07/25 00:48:45;;;;;;;9.43;5.75;;;;;;;17.12;100.00;98165.88;5069047;28;20021;-68
2021/07/25 00:51:10;;;;;;;7.97;5.50;;;;;;;17.09;100.00;98145.38;5069658;28;20481;-68
2021/07/25 00:53:39;;;;;;;13.68;4.88;;;;;;;17.16;100.00;98161.56;5069284;28;20025;-68
2021/07/25 00:56:08;;;;;;;12.77;6.03;;;;;;;17.14;100.00;98155.53;5069383;28;20052;-68
2021/07/25 00:58:39;;;;;;;8.55;5.18;;;;;;;17.12;100.00;98143.19;5066047;28;20020;-68
2021/07/25 01:01:06;;;;;;;8.20;5.68;;;;;;;17.13;100.00;98158.50;5068757;28;20033;-68
2021/07/25 01:03:40;;;;;;;17.30;6.13;;;;;;;17.12;100.00;98159.59;5068745;28;20036;-68
2021/07/25 01:06:24;;;;;;;9.23;5.28;;;;;;;17.07;100.00;98149.44;5069708;28;20084;-69
2021/07/25 01:09:02;;;;;;;11.95;5.28;;;;;;;17.04;100.00;98147.25;5070435;28;20056;-69
2021/07/25 01:11:36;;;;;;;9.02;5.40;;;;;;;17.07;100.00;98157.66;5063443;28;20021;-68
2021/07/25 01:14:03;;;;;;;8.88;5.63;;;;;;;17.06;100.00;98145.06;5051909;28;20021;-68
2021/07/25 01:16:31;;;;;;;12.73;5.47;;;;;;;17.09;100.00;98150.00;5052079;28;20031;-69
2021/07/25 01:18:57;;;;;;;9.30;5.75;;;;;;;17.05;100.00;98149.69;5030718;28;20033;-68
2021/07/25 01:21:22;;;;;;;12.55;6.32;;;;;;;17.05;100.00;98136.03;5050285;28;20025;-69
2021/07/25 01:23:48;;;;;;;11.10;5.75;;;;;;;17.08;100.00;98149.19;5051260;28;20491;-68
2021/07/25 01:26:19;;;;;;;11.25;5.88;;;;;;;17.04;100.00;98126.19;5051488;28;20193;-68
2021/07/25 01:28:47;;;;;;;9.50;5.55;;;;;;;17.23;100.00;98139.44;5050799;28;20548;-68
2021/07/25 01:31:17;;;;;;;13.82;6.15;;;;;;;17.34;100.00;98126.66;5031217;28;20037;-68
2021/07/25 01:33:44;;;;;;;8.77;5.97;;;;;;;17.37;100.00;98088.69;5049728;28;20028;-68
2021/07/25 01:36:13;;;;;;;10.05;5.07;;;;;;;17.32;100.00;98050.41;5052053;28;20028;-68
2021/07/25 01:38:38;;;;;;;12.10;5.68;;;;;;;17.21;100.00;98071.38;5051181;28;20047;-68
2021/07/25 01:41:06;;;;;;;10.70;6.22;;;;;;;17.15;100.00;98079.81;5049071;28;20471;-68
2021/07/25 01:43:33;;;;;;;11.98;6.30;;;;;;;17.03;100.00;98082.75;5050937;28;20029;-68
2021/07/25 01:45:58;;;;;;;11.48;6.55;;;;;;;17.16;100.00;98134.22;5032020;28;20048;-68
2021/07/25 01:48:24;;;;;;;10.48;5.82;;;;;;;17.12;100.00;98145.94;5050977;28;20509;-68
2021/07/25 01:50:49;;;;;;;16.58;6.65;;;;;;;17.15;100.00;98162.63;5049885;28;20033;-68
2021/07/25 01:53:15;;;;;;;15.82;6.15;;;;;;;17.08;100.00;98157.41;5050648;28;20441;-68
2021/07/25 01:55:41;;;;;;;16.20;6.15;;;;;;;17.08;100.00;98148.34;5055180;28;20445;-68
2021/07/25 01:58:06;;;;;;;15.43;6.25;;;;;;;17.03;100.00;98138.22;5054938;28;20044;-68
2021/07/25 02:00:32;;;;;;;20.00;6.63;;;;;;;16.99;100.00;98122.59;5053836;28;20056;-68
2021/07/25 02:02:57;;;;;;;15.98;6.70;;;;;;;16.98;100.00;98137.38;5035832;28;20490;-68
2021/07/25 02:05:22;;;;;;;17.23;6.70;;;;;;;16.92;100.00;98150.13;5053244;28;20032;-68
2021/07/25 02:07:47;;;;;;;18.17;6.30;;;;;;;16.91;100.00;98155.88;5036971;28;20021;-68
2021/07/25 02:10:13;;;;;;;14.95;7.18;;;;;;;16.89;100.00;98145.19;5052349;28;20171;-68
2021/07/25 02:12:38;;;;;;;20.23;7.82;;;;;;;16.99;100.00;98145.28;5036381;28;20033;-68
2021/07/25 02:15:05;;;;;;;15.75;7.00;;;;;;;17.00;100.00;98146.94;5054153;28;20031;-68
2021/07/25 02:17:30;;;;;;;16.15;7.30;;;;;;;16.90;100.00;98140.56;5054431;28;20040;-68
2021/07/25 02:19:55;;;;;;;12.70;6.15;;;;;;;17.02;100.00;98127.53;5053824;28;20029;-68
2021/07/25 02:22:21;;;;;;;14.40;7.35;;;;;;;17.04;100.00;98139.03;5053612;28;20044;-68
2021/07/25 02:24:46;;;;;;;12.15;6.60;;;;;;;16.97;100.00;98132.97;5054475;28;20036;-68
2021/07/25 02:27:11;;;;;;;15.82;7.10;;;;;;;16.90;100.00;98129.63;5054322;28;20029;-68
2021/07/25 02:29:37;;;;;;;16.40;8.13;;;;;;;16.87;100.00;98158.28;5053921;28;20820;-68
2021/07/25 02:32:03;;;;;;;18.55;7.65;;;;;;;16.92;100.00;98165.72;5033180;28;20075;-68
2021/07/25 02:34:28;;;;;;;13.20;7.47;;;;;;;16.99;100.00;98142.56;5053195;28;20112;-68
2021/07/25 02:36:53;;;;;;;12.02;6.55;;;;;;;17.09;100.00;98160.94;5053792;28;20108;-68
2021/07/25 02:39:19;;;;;;;13.38;6.80;;;;;;;17.04;100.00;98159.00;5054010;28;20032;-68
2021/07/25 02:41:44;;;;;;;14.40;7.57;;;;;;;17.13;100.00;98162.06;5053592;28;20119;-68
2021/07/25 02:44:09;;;;;;;21.15;7.63;;;;;;;17.21;100.00;98171.69;5053994;28;20448;-68
2021/07/25 02:46:35;;;;;;;12.27;6.45;;;;;;;17.23;100.00;98172.25;5053475;28;20040;-68
2021/07/25 02:49:01;;;;;;;11.60;7.45;;;;;;;17.11;100.00;98156.06;5054632;28;20474;-68
2021/07/25 02:51:26;;;;;;;16.55;7.18;;;;;;;17.07;100.00;98146.72;5052459;28;20025;-68
2021/07/25 02:53:51;;;;;;;20.02;7.30;;;;;;;17.16;100.00;98167.03;5053915;28;20102;-68
2021/07/25 02:56:16;;;;;;;15.40;7.45;;;;;;;17.03;100.00;98151.06;5054111;28;20031;-68
2021/07/25 02:58:42;;;;;;;13.73;8.50;;;;;;;16.99;100.00;98153.47;5054773;28;20025;-68
2021/07/25 03:01:14;;;;;;;11.57;7.63;;;;;;;17.09;100.00;98139.91;5036189;28;20108;-68
2021/07/25 03:03:40;;;;;;;18.48;8.45;;;;;;;17.18;100.00;98150.34;5054495;28;20028;-68
2021/07/25 03:06:05;;;;;;;18.63;8.48;;;;;;;17.05;100.00;98146.16;5052012;28;20061;-68
2021/07/25 03:08:31;;;;;;;15.75;8.93;;;;;;;16.98;100.00;98140.09;5053749;28;20059;-68
2021/07/25 03:10:56;;;;;;;20.30;9.65;;;;;;;17.02;100.00;98169.34;5052479;28;20054;-68
2021/07/25 03:13:21;;;;;;;21.55;8.65;;;;;;;17.08;100.00;98181.16;5035986;28;20569;-68
2021/07/25 03:15:47;;;;;;;20.00;8.93;;;;;;;17.15;100.00;98184.50;5053564;28;20386;-68
2021/07/25 03:18:12;;;;;;;15.88;8.27;;;;;;;17.10;100.00;98181.72;5053879;28;20028;-68
2021/07/25 03:20:37;;;;;;;15.93;8.68;;;;;;;16.99;100.00;98160.88;5034320;28;20017;-68
2021/07/25 03:23:03;;;;;;;15.35;8.93;;;;;;;17.07;100.00;98166.66;5053069;28;20766;-68
2021/07/25 03:25:28;;;;;;;14.40;7.60;;;;;;;17.08;100.00;98175.69;5053718;28;20099;-68
2021/07/25 03:27:54;;;;;;;23.75;8.07;;;;;;;17.01;100.00;98167.72;5053700;28;20056;-68
2021/07/25 03:30:19;;;;;;;16.33;8.13;;;;;;;16.97;100.00;98157.56;5051984;28;20033;-68
2021/07/25 03:32:44;;;;;;;20.40;8.32;;;;;;;16.96;100.00;98161.38;5052328;28;20477;-68
2021/07/25 03:35:10;;;;;;;17.60;8.90;;;;;;;16.94;100.00;98158.09;5052899;28;20029;-68
2021/07/25 03:37:40;;;;;;;16.15;8.40;;;;;;;16.97;100.00;98165.75;5052873;28;20025;-68
2021/07/25 03:40:07;;;;;;;20.88;8.50;;;;;;;16.89;100.00;98158.03;5052364;28;20521;-68
2021/07/25 03:42:33;;;;;;;17.83;9.38;;;;;;;16.84;100.00;98147.88;5053203;28;20502;-68
2021/07/25 03:44:58;;;;;;;15.77;9.05;;;;;;;16.88;100.00;98161.88;5053426;28;20051;-68
2021/07/25 03:47:23;;;;;;;16.13;9.18;;;;;;;16.99;100.00;98153.47;5052884;28;20055;-68
2021/07/25 03:49:49;;;;;;;20.98;8.15;;;;;;;17.04;100.00;98163.63;5052313;28;20108;-68
2021/07/25 03:52:14;;;;;;;14.27;8.48;;;;;;;16.93;100.00;98164.66;5052044;28;20029;-68
2021/07/25 03:54:42;;;;;;;13.70;8.25;;;;;;;16.92;100.00;98166.53;5051759;28;20029;-68
2021/07/25 03:57:09;;;;;;;16.23;8.80;;;;;;;16.83;100.00;98173.56;5033468;28;20025;-68
2021/07/25 03:59:34;;;;;;;11.80;8.10;;;;;;;16.71;100.00;98162.75;5048825;28;20050;-68
2021/07/25 04:01:59;;;;;;;17.17;8.85;;;;;;;16.66;100.00;98159.97;5052608;28;20112;-68
2021/07/25 04:04:24;;;;;;;14.20;8.73;;;;;;;16.67;100.00;98169.84;5050565;28;20471;-68
2021/07/25 04:06:50;;;;;;;16.73;9.18;;;;;;;16.64;100.00;98179.38;5052354;28;20036;-68
2021/07/25 04:09:15;;;;;;;14.15;8.75;;;;;;;16.73;100.00;98173.44;5052163;28;20054;-68
2021/07/25 04:11:41;;;;;;;16.20;8.48;;;;;;;16.88;100.00;98181.81;5052666;28;20520;-68
2021/07/25 04:14:06;;;;;;;13.13;8.50;;;;;;;16.80;100.00;98180.38;5050741;28;20626;-68
2021/07/25 04:16:31;;;;;;;14.20;7.78;;;;;;;16.76;100.00;98187.41;5052168;28;20086;-68
2021/07/25 04:18:57;;;;;;;15.02;8.15;;;;;;;16.97;100.00;98191.16;5051750;28;20021;-68
2021/07/25 04:21:22;;;;;;;12.93;7.95;;;;;;;16.97;100.00;98191.16;5052636;28;20033;-68
2021/07/25 04:23:47;;;;;;;15.00;8.38;;;;;;;16.99;100.00;98189.00;5051313;28;20375;-68
2021/07/25 04:26:13;;;;;;;19.40;7.55;;;;;;;17.00;100.00;98178.91;5052603;28;20037;-68
2021/07/25 04:28:39;;;;;;;15.23;7.65;;;;;;;17.08;100.00;98186.63;5051956;28;20119;-68
2021/07/25 04:31:05;;;;;;;14.40;7.72;;;;;;;17.10;100.00;98184.44;5051353;28;20103;-68
2021/07/25 04:33:32;;;;;;;13.10;7.60;;;;;;;17.11;100.00;98191.59;5051828;28;20075;-68
2021/07/25 04:35:58;;;;;;;13.45;8.70;;;;;;;17.15;100.00;98192.69;5052457;28;20063;-70
2021/07/25 04:38:23;;;;;;;10.70;7.57;;;;;;;17.28;100.00;98197.72;5052632;28;20032;-68
2021/07/25 04:40:56;;;;;;;10.70;6.75;;;;;;;17.50;100.00;98204.97;5051894;28;20033;-68
2021/07/25 04:43:24;;;;;;;12.07;6.50;;;;;;;17.63;100.00;98209.16;5051113;28;20033;-68
2021/07/25 04:46:03;;;;;;;12.63;7.47;;;;;;;17.55;100.00;98194.06;5051396;28;20028;-68
2021/07/25 04:48:47;;;;;;;13.70;6.80;;;;;;;17.51;100.00;98196.53;5052244;28;20029;-68
2021/07/25 04:51:14;;;;;;;13.85;7.18;;;;;;;17.45;100.00;98192.13;5051029;28;20387;-68
2021/07/25 04:53:41;;;;;;;13.52;7.88;;;;;;;17.38;100.00;98185.22;5051222;28;20024;-68
2021/07/25 04:56:11;;;;;;;17.85;7.68;;;;;;;17.38;100.00;98196.97;5051742;28;20020;-68
2021/07/25 04:59:03;;;;;;;14.02;7.60;;;;;;;17.51;100.00;98180.09;5052530;28;20028;-68
2021/07/25 05:01:32;;;;;;;15.10;7.80;;;;;;;17.58;100.00;98184.50;5051465;28;20486;-68
2021/07/25 05:04:01;;;;;;;14.13;7.38;;;;;;;17.82;100.00;98201.41;5050964;28;20029;-68
2021/07/25 05:06:29;;;;;;;13.60;7.35;;;;;;;17.85;100.00;98207.16;5050915;28;20540;-68
2021/07/25 05:08:54;;;;;;;22.13;7.80;;;;;;;18.00;100.00;98214.63;5050493;28;20399;-68
2021/07/25 05:11:24;;;;;;;16.60;7.88;;;;;;;18.08;100.00;98200.44;5051276;28;20028;-68
2021/07/25 05:13:54;;;;;;;11.18;6.72;;;;;;;18.17;100.00;98215.25;5050351;28;20119;-68
2021/07/25 05:16:41;;;;;;;16.00;6.78;;;;;;;18.32;100.00;98219.16;5052618;28;20029;-68
2021/07/25 05:19:34;;;;;;;15.23;7.15;;;;;;;18.38;100.00;98218.88;5051989;28;20036;-68
2021/07/25 05:22:20;;;;;;;21.05;7.88;;;;;;;18.31;100.00;98212.00;5051686;28;20075;-68
2021/07/25 05:24:46;;;;;;;12.30;6.35;;;;;;;18.23;100.00;98232.50;5050283;28;20033;-68
2021/07/25 05:27:18;;;;;;;14.02;7.20;;;;;;;18.20;100.00;98233.06;5051810;28;20029;-68
2021/07/25 05:29:46;;;;;;;10.20;7.47;;;;;;;18.20;100.00;98207.59;5053913;28;20083;-68
2021/07/25 05:32:11;;;;;;;10.45;7.32;;;;;;;18.28;100.00;98210.63;5055608;28;20013;-68
2021/07/25 05:34:36;;;;;;;14.88;7.90;;;;;;;18.30;100.00;98202.97;5046792;28;20040;-68
2021/07/25 05:37:02;;;;;;;18.90;8.00;;;;;;;18.49;100.00;98216.19;5054789;28;20020;-68
2021/07/25 05:39:27;;;;;;;13.63;7.65;;;;;;;18.48;100.00;98212.63;5055604;28;20473;-68
2021/07/25 05:41:52;;;;;;;11.95;7.55;;;;;;;18.47;100.00;98216.47;5053477;28;20021;-68
2021/07/25 05:44:18;;;;;;;14.70;7.60;;;;;;;18.54;100.00;98227.97;5036981;28;20036;-68
2021/07/25 05:46:43;;;;;;;11.55;7.72;;;;;;;18.52;100.00;98235.66;5051069;28;20031;-71
2021/07/25 05:49:08;;;;;;;10.23;6.55;;;;;;;18.55;100.00;98235.13;5054479;28;20028;-70
2021/07/25 05:51:33;;;;;;;15.25;7.40;;;;;;;18.53;100.00;98231.00;5055484;28;20466;-72
2021/07/25 05:53:59;;;;;;;16.10;8.13;;;;;;;18.55;100.00;98231.56;5056232;28;20025;-73
2021/07/25 05:56:24;;;;;;;14.70;7.15;;;;;;;18.48;100.00;98220.03;5051657;28;20033;-74
2021/07/25 05:58:49;;;;;;;14.13;7.22;;;;;;;18.55;100.00;98226.09;5053952;28;20064;-73
2021/07/25 06:01:15;;;;;;;17.23;8.30;;;;;;;18.57;100.00;98224.69;5055117;28;20179;-68
2021/07/25 06:03:40;;;;;;;14.05;7.45;;;;;;;18.58;100.00;98226.34;5049562;28;20475;-69
2021/07/25 06:06:08;;;;;;;18.83;8.63;;;;;;;18.60;100.00;98228.81;5108639;22;20086;-67
2021/07/25 06:08:33;;;;;;;14.10;8.45;;;;;;;18.61;100.00;98219.50;5054127;28;20711;-68
2021/07/25 06:10:59;;;;;;;13.88;8.13;;;;;;;18.74;100.00;98229.97;5030964;28;20109;-67
2021/07/25 06:13:24;;;;;;;15.48;8.00;;;;;;;18.61;100.00;98220.34;5052775;28;20021;-67
2021/07/25 06:15:49;;;;;;;16.85;8.60;;;;;;;18.71;100.00;98232.44;5053726;28;20074;-69
2021/07/25 06:18:15;;;;;;;16.80;9.15;;;;;;;18.71;100.00;98235.97;5045350;28;20459;-70
2021/07/25 06:20:40;;;;;;;13.38;8.18;;;;;;;18.75;100.00;98241.78;5030044;28;20029;-69
2021/07/25 06:23:06;;;;;;;15.18;8.18;;;;;;;18.85;100.00;98236.31;5027317;28;20032;-69
2021/07/25 06:25:33;;;;;;;16.25;7.50;;;;;;;18.99;100.00;98242.94;5033557;28;20029;-70
2021/07/25 06:28:00;;;;;;;12.60;7.25;;;;;;;19.08;100.00;98245.13;5018133;28;20033;-69
2021/07/25 06:30:27;;;;;;;18.85;7.90;;;;;;;19.21;98.44;98230.88;5030298;28;20115;-69
2021/07/25 06:33:02;;;;;;;13.48;7.32;;;;;;;19.47;97.24;98232.53;5029459;28;20021;-67
2021/07/25 06:35:39;;;;;;;13.55;8.13;;;;;;;19.47;95.21;98205.09;5030567;28;20029;-66
2021/07/25 06:38:09;;;;;;;12.23;6.93;;;;;;;19.74;95.32;98236.91;5014777;28;20064;-63
2021/07/25 06:40:36;;;;;;;11.30;7.07;;;;;;;19.86;93.77;98233.88;5020987;28;20048;-63
2021/07/25 06:43:03;;;;;;;13.30;6.68;;;;;;;19.99;92.92;98236.06;5037849;28;20079;-63
2021/07/25 06:45:29;;;;;;;13.70;6.85;;;;;;;19.84;93.07;98220.44;5033425;28;20090;-70
2021/07/25 06:47:55;;;;;;;9.52;6.90;;;;;;;20.01;93.73;98230.25;5032468;28;21063;-69
2021/07/25 06:50:22;;;;;;;14.75;6.85;;;;;;;20.16;92.41;98221.97;5015346;28;20037;-69
2021/07/25 06:52:50;;;;;;;10.50;5.90;;;;;;;20.26;91.00;98226.63;5033502;28;20029;-67
2021/07/25 06:55:17;;;;;;;12.85;6.40;;;;;;;20.19;89.28;98202.19;5026551;28;20566;-71
2021/07/25 06:57:42;;;;;;;11.15;6.82;;;;;;;20.23;89.12;98217.00;5032953;28;20045;-70
2021/07/25 07:00:08;;;;;;;11.73;6.50;;;;;;;20.12;89.39;98218.97;5032786;28;20053;-69
2021/07/25 07:02:56;;;;;;;14.25;6.50;;;;;;;20.21;87.28;98208.22;5032681;28;20032;-68
2021/07/25 07:05:29;;;;;;;8.27;5.65;;;;;;;20.46;86.02;98217.44;5015931;28;20044;-65
2021/07/25 07:07:56;;;;;;;10.85;5.95;;;;;;;20.81;84.94;98210.16;5033516;28;20040;-65
2021/07/25 07:10:28;;;;;;;8.25;5.30;;;;;;;21.28;80.72;98214.22;5029500;28;20090;-65
2021/07/25 07:12:56;;;;;;;9.48;5.32;;;;;;;21.97;78.53;98206.69;5030249;28;20080;-69
2021/07/25 07:15:23;;;;;;;10.18;5.22;;;;;;;22.18;77.94;98207.28;5033394;28;20112;-69
2021/07/25 07:17:52;;;;;;;10.57;5.63;;;;;;;21.85;79.12;98198.81;5016256;28;20112;-69
2021/07/25 07:20:18;;;;;;;11.80;5.15;;;;;;;22.12;78.76;98206.53;5033449;28;20036;-69
2021/07/25 07:22:50;;;;;;;10.55;4.93;;;;;;;22.83;75.51;98198.47;5030850;28;20033;-70
2021/07/25 07:25:15;;;;;;;10.23;4.78;;;;;;;25.39;66.45;98202.63;5033730;28;20030;-69
2021/07/25 07:27:41;;;;;;;8.45;4.50;;;;;;;27.92;57.24;98195.63;5031696;28;20025;-69
2021/07/25 07:30:06;;;;;;;7.68;4.50;;;;;;;28.59;55.05;98183.72;5033690;28;20028;-69
2021/07/25 07:32:32;;;;;;;5.70;4.50;;;;;;;28.11;56.23;98196.06;5033546;28;20025;-67
2021/07/25 07:34:57;;;;;;;9.70;4.40;;;;;;;28.48;54.71;98193.59;5026272;28;20028;-68
2021/07/25 07:37:23;;;;;;;10.80;4.18;;;;;;;28.09;53.78;98192.78;5027725;28;20034;-67
2021/07/25 07:39:48;;;;;;;5.93;4.10;;;;;;;27.60;54.33;98183.94;5031973;28;20056;-68
2021/07/25 07:42:13;;;;;;;6.70;4.22;;;;;;;27.27;56.94;98186.44;5032901;28;20025;-68
2021/07/25 07:44:39;;;;;;;8.18;4.40;;;;;;;26.61;60.19;98170.72;5033186;28;20489;-70
2021/07/25 07:47:05;;;;;;;13.15;4.38;;;;;;;26.80;58.72;98195.41;5030577;28;20048;-71
2021/07/25 07:49:31;;;;;;;8.32;4.10;;;;;;;28.56;54.67;98187.16;5033004;28;20029;-72
2021/07/25 07:51:57;;;;;;;6.25;3.95;;;;;;;28.89;53.41;98177.28;5033095;28;20565;-74
2021/07/25 07:54:22;;;;;;;7.40;4.72;;;;;;;29.12;51.97;98180.56;5015652;28;20104;-74
2021/07/25 07:56:47;;;;;;;8.05;4.38;;;;;;;29.90;48.35;98168.63;5015539;28;20521;-71
2021/07/25 07:59:13;;;;;;;7.05;4.25;;;;;;;28.00;53.53;98155.84;5015880;28;20067;-75
2021/07/25 08:01:38;;;;;;;8.30;4.65;;;;;;;27.44;55.43;98185.59;5014875;28;20032;-73
2021/07/25 08:04:03;;;;;;;7.68;4.68;;;;;;;26.37;58.03;98175.88;5031644;28;20098;-72
2021/07/25 08:06:29;;;;;;;8.65;4.40;;;;;;;26.02;59.39;98159.94;5031891;28;20033;-72
2021/07/25 08:08:55;;;;;;;8.02;4.25;;;;;;;25.44;61.77;98185.03;5033049;28;20406;-72
2021/07/25 08:11:20;;;;;;;7.60;4.60;;;;;;;25.10;62.79;98165.09;5007799;28;20021;-72
2021/07/25 08:13:46;;;;;;;9.27;4.50;;;;;;;25.14;61.45;98143.94;5031464;28;20021;-73
2021/07/25 08:16:11;;;;;;;6.53;4.00;;;;;;;25.12;62.02;98162.81;5032851;28;20029;-74
2021/07/25 08:18:38;;;;;;;11.48;4.88;;;;;;;25.65;60.59;98149.31;5032959;28;20061;-75
2021/07/25 08:21:04;;;;;;;8.73;4.75;;;;;;;26.34;60.57;98168.19;5033213;28;20029;-74
2021/07/25 08:23:30;;;;;;;8.77;4.60;;;;;;;26.62;60.34;98179.88;5032578;28;20060;-73
2021/07/25 08:25:56;;;;;;;6.18;4.28;;;;;;;26.54;59.78;98162.06;5032737;28;20025;-75
2021/07/25 08:28:21;;;;;;;7.35;4.50;;;;;;;26.99;58.80;98156.22;5033277;28;20035;-73
2021/07/25 08:30:46;;;;;;;6.55;4.38;;;;;;;28.55;54.23;98168.00;5015897;28;20025;-72
2021/07/25 08:33:12;;;;;;;8.90;4.43;;;;;;;31.50;45.92;98146.84;5032253;28;20024;-73
2021/07/25 08:35:38;;;;;;;8.77;4.13;;;;;;;34.01;41.75;98166.47;5032225;28;20037;-72
2021/07/25 08:38:03;;;;;;;8.57;4.15;;;;;;;36.24;35.07;98144.88;5024892;28;20382;-73
2021/07/25 08:40:31;;;;;;;6.38;4.07;;;;;;;36.35;35.35;98171.91;5027625;28;20029;-74
2021/07/25 08:43:09;;;;;;;7.25;4.55;;;;;;;33.95;38.39;98176.38;5013283;28;20125;-71
2021/07/25 08:45:38;;;;;;;7.50;4.18;;;;;;;32.97;40.32;98182.06;5023725;28;20033;-74
2021/07/25 08:48:14;;;;;;;5.90;4.10;;;;;;;31.12;44.35;98170.50;5026986;28;20567;-73
2021/07/25 08:50:49;;;;;;;5.75;4.32;;;;;;;29.44;48.41;98182.53;5010191;28;20094;-73
2021/07/25 08:53:18;;;;;;;5.95;4.22;;;;;;;28.18;50.84;98178.84;5031850;28;20028;-72
2021/07/25 08:55:46;;;;;;;4.60;4.00;;;;;;;26.27;55.59;98193.63;5025938;28;20025;-71
2021/07/25 08:58:12;;;;;;;8.63;4.75;;;;;;;25.55;58.70;98197.50;5023472;28;20029;-71
2021/07/25 09:00:38;;;;;;;6.28;4.30;;;;;;;25.23;59.88;98195.81;5006904;28;20436;-72
2021/07/25 09:03:09;;;;;;;8.30;4.50;;;;;;;25.53;58.57;98174.84;5024792;28;20499;-72
2021/07/25 09:05:35;;;;;;;6.65;4.82;;;;;;;24.86;61.62;98186.69;5009309;28;20056;-73
2021/07/25 09:08:04;;;;;;;6.10;4.45;;;;;;;24.85;61.42;98196.94;5032496;28;20025;-72
2021/07/25 09:10:30;;;;;;;7.72;4.65;;;;;;;24.49;62.94;98199.69;5032174;28;20028;-73
2021/07/25 09:12:57;;;;;;;7.15;4.55;;;;;;;24.26;64.96;98210.66;5014500;28;20088;-72
2021/07/25 09:15:29;;;;;;;5.97;4.57;;;;;;;24.22;64.50;98204.09;5031887;28;20068;-68
2021/07/25 09:17:56;;;;;;;8.57;5.43;;;;;;;24.14;66.29;98206.75;5031749;28;20037;-68
2021/07/25 09:20:23;;;;;;;7.93;4.95;;;;;;;24.12;64.96;98184.94;5030208;28;20022;-68
2021/07/25 09:22:48;;;;;;;7.05;4.57;;;;;;;24.36;65.21;98194.97;5029391;28;20058;-68
2021/07/25 09:25:22;;;;;;;9.17;4.80;;;;;;;23.99;66.25;98199.56;5027190;28;20254;-68
2021/07/25 09:27:56;;;;;;;7.53;4.20;;;;;;;24.25;64.91;98200.69;5027453;28;20318;-68
2021/07/25 09:30:23;;;;;;;7.28;4.88;;;;;;;24.61;63.81;98169.56;5028113;28;20132;-68
2021/07/25 09:32:49;;;;;;;6.43;4.68;;;;;;;25.16;62.66;98189.91;5026428;28;20024;-69
2021/07/25 09:35:40;;;;;;;8.63;4.45;;;;;;;25.21;62.88;98189.78;5027529;28;20033;-68
2021/07/25 09:38:05;;;;;;;11.35;5.05;;;;;;;25.16;63.34;98195.44;5027884;28;20030;-68
2021/07/25 09:40:34;;;;;;;8.10;5.23;;;;;;;24.85;63.81;98196.13;5025230;28;20036;-68
2021/07/25 09:43:08;;;;;;;6.37;4.27;;;;;;;24.74;64.41;98191.97;5029175;28;20288;-68
2021/07/25 09:45:55;;;;;;;6.68;4.72;;;;;;;24.89;64.28;98199.94;5032063;28;20545;-68
2021/07/25 09:48:25;;;;;;;8.18;5.30;;;;;;;24.96;63.13;98192.00;5026906;28;20033;-69
2021/07/25 09:50:53;;;;;;;6.60;4.90;;;;;;;25.03;63.53;98194.34;5026839;28;20379;-69
2021/07/25 09:53:19;;;;;;;7.78;4.50;;;;;;;25.45;61.63;98203.31;5025193;28;20134;-68
2021/07/25 09:55:45;;;;;;;8.43;4.30;;;;;;;26.06;60.08;98203.66;5027004;28;20044;-68
2021/07/25 09:58:10;;;;;;;7.40;4.82;;;;;;;26.07;59.68;98202.50;5030131;28;20033;-68
2021/07/25 10:00:44;;;;;;;7.13;4.70;;;;;;;26.68;57.41;98198.00;5027562;28;20037;-68
2021/07/25 10:03:18;;;;;;;7.90;4.40;;;;;;;27.46;54.90;98208.31;5028000;28;20053;-68
2021/07/25 10:05:52;;;;;;;7.40;4.50;;;;;;;30.04;49.00;98197.00;5027388;28;20067;-67
2021/07/25 10:08:20;;;;;;;8.93;3.83;;;;;;;30.79;45.37;98204.22;5010280;28;20088;-68
2021/07/25 10:10:50;;;;;;;6.70;3.70;;;;;;;32.15;43.32;98210.06;5027891;28;20025;-68
2021/07/25 10:13:17;;;;;;;5.65;3.88;;;;;;;29.95;47.23;98195.47;5027353;28;20483;-68
2021/07/25 10:16:01;;;;;;;5.53;3.83;;;;;;;28.91;49.99;98192.50;5013105;28;20287;-68
2021/07/25 10:18:27;;;;;;;5.97;3.70;;;;;;;27.59;53.94;98198.97;5031632;28;20025;-68
2021/07/25 10:20:56;;;;;;;6.43;4.22;;;;;;;26.92;54.91;98185.59;5031104;28;20808;-69
2021/07/25 10:23:56;;;;;;;7.82;4.15;;;;;;;26.04;57.98;98203.16;5031012;28;20022;-69
2021/07/25 10:26:26;;;;;;;9.00;4.15;;;;;;;25.48;58.38;98219.28;4960055;28;20069;-69
2021/07/25 10:28:56;;;;;;;6.38;4.30;;;;;;;25.00;59.83;98209.63;5030763;28;20079;-69
2021/07/25 10:31:24;;;;;;;6.00;4.00;;;;;;;24.83;61.82;98213.03;5030773;28;20029;-69
2021/07/25 10:33:54;;;;;;;5.88;4.22;;;;;;;24.43;62.92;98198.94;5030362;28;20047;-71
2021/07/25 10:36:20;;;;;;;9.15;4.30;;;;;;;24.66;63.02;98215.66;5030724;28;20029;-71
2021/07/25 10:38:47;;;;;;;8.07;4.28;;;;;;;24.65;63.01;98236.13;5030413;28;20037;-70
2021/07/25 10:41:25;;;;;;;5.10;4.18;;;;;;;24.52;63.61;98218.41;5029902;28;20033;-68
2021/07/25 10:43:51;;;;;;;6.55;4.13;;;;;;;24.60;63.47;98201.13;5031107;28;20120;-68
2021/07/25 10:46:22;;;;;;;10.02;4.65;;;;;;;24.16;64.70;98224.66;5030976;28;20072;-68
2021/07/25 10:49:00;;;;;;;6.05;4.68;;;;;;;23.65;66.23;98230.28;5031018;28;20033;-68
2021/07/25 10:51:25;;;;;;;5.53;3.83;;;;;;;23.71;66.51;98226.31;5028529;28;20033;-68
2021/07/25 10:53:51;;;;;;;7.65;4.40;;;;;;;23.53;67.41;98222.50;5030584;28;20124;-68
2021/07/25 10:56:16;;;;;;;9.90;4.43;;;;;;;23.11;71.63;98229.81;5031321;28;20040;-68
2021/07/25 10:58:54;;;;;;;7.50;4.60;;;;;;;22.66;73.82;98232.91;5031663;28;20072;-71
2021/07/25 11:01:43;;;;;;;8.27;4.70;;;;;;;22.45;76.64;98237.00;5028078;28;20026;-70
2021/07/25 11:04:09;;;;;;;6.63;4.70;;;;;;;22.47;78.15;98237.53;5031644;28;20021;-70
2021/07/25 11:06:34;;;;;;;6.78;4.85;;;;;;;22.57;77.77;98223.63;5013516;28;20043;-69
2021/07/25 11:08:59;;;;;;;7.25;4.82;;;;;;;22.49;76.70;98207.75;5031148;28;20396;-69
2021/07/25 11:11:24;;;;;;;7.82;4.65;;;;;;;22.58;76.53;98222.50;5030094;28;20079;-68
2021/07/25 11:13:50;;;;;;;5.63;4.20;;;;;;;22.78;74.28;98212.31;5030626;28;20033;-69
2021/07/25 11:16:28;;;;;;;6.00;4.03;;;;;;;23.10;74.09;98217.13;5030915;28;20326;-68
2021/07/25 11:18:54;;;;;;;6.03;3.90;;;;;;;23.01;71.59;98221.69;5030579;28;20048;-68
2021/07/25 11:21:36;;;;;;;5.38;3.95;;;;;;;23.00;73.16;98220.03;5012280;28;20087;-68
2021/07/25 11:24:22;;;;;;;7.25;4.85;;;;;;;23.06;71.39;98229.88;5025373;28;20021;-67
2021/07/25 11:26:56;;;;;;;9.38;4.80;;;;;;;23.07;73.60;98210.25;5029498;28;20028;-69
2021/07/25 11:29:22;;;;;;;7.05;4.53;;;;;;;23.28;73.15;98224.53;5031008;28;20476;-69